Time;durP1;ratioP1;P1;durP2;ratioP2;P2;SDS_P1;SDS_P2;PMS_P1;PMS_P2;Temp;Humidity;BMP_temperature;BMP_pressure;BME280_temperature;BME280_humidity;BME280_pressure;Samples;Min_cycle;Max_cycle;Signal;HPM_P1;HPM_P2
2023/03/06 00:01:53;;;;;;;29.20;10.27;;;4.80;99.90;;;;;;5094985;28;20758;-75
2023/03/06 00:04:20;;;;;;;21.77;8.50;;;4.80;99.90;;;;;;5103194;28;20657;-76
2023/03/06 00:06:47;;;;;;;27.57;10.40;;;4.80;99.90;;;;;;5096838;28;20202;-76
2023/03/06 00:09:15;;;;;;;25.67;10.70;;;4.90;99.90;;;;;;5101230;28;20211;-76
2023/03/06 00:11:42;;;;;;;27.23;10.93;;;4.90;99.90;;;;;;5109695;28;20719;-76
2023/03/06 00:14:08;;;;;;;26.67;10.90;;;5.00;99.90;;;;;;5108794;28;20467;-76
2023/03/06 00:16:35;;;;;;;29.93;11.13;;;4.80;99.90;;;;;;5100259;28;20199;-76
2023/03/06 00:19:02;;;;;;;21.73;8.37;;;4.80;99.90;;;;;;5102057;28;20211;-76
2023/03/06 00:21:29;;;;;;;22.90;7.17;;;4.90;99.90;;;;;;5102420;28;20237;-76
2023/03/06 00:23:56;;;;;;;30.87;9.97;;;5.10;99.90;;;;;;5101341;28;20315;-76
2023/03/06 00:26:24;;;;;;;25.73;10.10;;;4.70;99.90;;;;;;5106626;28;20209;-76
2023/03/06 00:28:51;;;;;;;27.47;10.77;;;4.80;99.90;;;;;;5108687;28;20207;-76
2023/03/06 00:31:18;;;;;;;28.23;11.40;;;4.80;99.90;;;;;;5096366;28;20743;-76
2023/03/06 00:33:44;;;;;;;25.67;11.53;;;4.60;99.90;;;;;;5104190;28;20231;-76
2023/03/06 00:36:11;;;;;;;25.80;9.30;;;4.70;99.90;;;;;;5108339;28;20212;-76
2023/03/06 00:38:41;;;;;;;27.77;9.70;;;4.70;99.90;;;;;;5083734;28;20208;-76
2023/03/06 00:41:09;;;;;;;27.97;10.07;;;4.70;99.90;;;;;;5077239;28;20734;-76
2023/03/06 00:43:37;;;;;;;23.73;9.20;;;4.70;99.90;;;;;;5093810;28;20474;-76
2023/03/06 00:46:05;;;;;;;28.33;12.00;;;5.00;99.90;;;;;;5089664;28;20228;-76
2023/03/06 00:48:33;;;;;;;31.60;14.37;;;4.70;99.90;;;;;;5108602;28;20214;-76
2023/03/06 00:51:00;;;;;;;29.43;12.50;;;4.60;99.90;;;;;;5089658;28;20245;-76
2023/03/06 00:53:26;;;;;;;34.70;15.47;;;4.60;99.90;;;;;;5102911;28;20235;-76
2023/03/06 00:55:53;;;;;;;30.33;12.83;;;4.60;99.90;;;;;;5084475;28;20270;-76
2023/03/06 00:58:20;;;;;;;27.47;11.80;;;4.60;99.90;;;;;;5070449;28;20282;-76
2023/03/06 01:00:48;;;;;;;32.50;14.50;;;4.60;99.90;;;;;;5100208;28;20234;-76
2023/03/06 01:03:16;;;;;;;32.30;12.93;;;4.50;99.90;;;;;;5093630;28;20208;-76
2023/03/06 01:05:43;;;;;;;30.23;13.80;;;4.70;99.90;;;;;;5094105;28;20687;-76
2023/03/06 01:08:10;;;;;;;30.20;14.33;;;4.60;99.90;;;;;;5088464;28;20220;-76
2023/03/06 01:10:38;;;;;;;33.63;13.03;;;4.60;99.90;;;;;;5098498;28;20233;-76
2023/03/06 01:13:06;;;;;;;34.90;14.40;;;4.60;99.90;;;;;;5096575;28;20221;-76
2023/03/06 01:15:33;;;;;;;32.37;14.50;;;4.60;99.90;;;;;;5100442;28;20226;-76
2023/03/06 01:18:01;;;;;;;32.57;12.37;;;4.70;99.90;;;;;;5090224;28;20208;-76
2023/03/06 01:20:29;;;;;;;29.70;12.27;;;4.70;99.90;;;;;;5088433;28;20240;-76
2023/03/06 01:22:55;;;;;;;36.20;14.30;;;4.60;99.90;;;;;;5080622;28;20234;-75
2023/03/06 01:25:23;;;;;;;32.90;14.63;;;4.90;99.90;;;;;;5102228;28;20209;-76
2023/03/06 01:27:51;;;;;;;38.20;16.47;;;6.30;99.90;;;;;;5082803;28;20199;-76
2023/03/06 01:30:19;;;;;;;41.03;17.10;;;4.60;99.90;;;;;;5077944;28;20228;-76
2023/03/06 01:32:46;;;;;;;38.03;16.47;;;4.70;99.90;;;;;;5096997;28;20203;-76
2023/03/06 01:35:15;;;;;;;39.10;18.10;;;4.80;99.90;;;;;;5080234;28;20220;-76
2023/03/06 01:37:42;;;;;;;42.00;19.03;;;4.60;99.90;;;;;;5089989;28;20208;-76
2023/03/06 01:40:11;;;;;;;42.17;18.77;;;4.60;99.90;;;;;;5082494;28;20231;-76
2023/03/06 01:42:38;;;;;;;30.57;14.50;;;4.60;99.90;;;;;;5082633;28;20301;-76
2023/03/06 01:45:08;;;;;;;38.53;18.57;;;4.60;99.90;;;;;;5076007;28;20775;-75
2023/03/06 01:47:35;;;;;;;42.70;21.03;;;4.60;99.90;;;;;;5082557;28;20253;-75
2023/03/06 01:50:03;;;;;;;42.53;19.83;;;4.60;99.90;;;;;;5106698;28;20700;-76
2023/03/06 01:52:38;;;;;;;36.33;16.60;;;4.70;99.90;;;;;;5084361;28;20215;-76
2023/03/06 01:55:09;;;;;;;44.07;20.57;;;4.60;99.90;;;;;;5072416;28;20216;-76
2023/03/06 01:57:40;;;;;;;38.33;18.67;;;4.60;99.90;;;;;;5101426;28;20215;-76
2023/03/06 02:00:12;;;;;;;36.60;17.13;;;4.60;99.90;;;;;;5102274;28;20216;-76
2023/03/06 02:02:48;;;;;;;38.23;18.30;;;4.60;99.90;;;;;;5069144;28;20213;-76
2023/03/06 02:05:15;;;;;;;43.10;18.63;;;4.60;99.90;;;;;;5096540;28;20208;-76
2023/03/06 02:07:45;;;;;;;41.53;20.20;;;4.50;99.90;;;;;;5086675;28;20435;-75
2023/03/06 02:10:14;;;;;;;40.27;18.73;;;4.90;99.90;;;;;;5087330;28;20228;-76
2023/03/06 02:12:43;;;;;;;37.47;16.80;;;4.50;99.90;;;;;;5099037;28;20220;-76
2023/03/06 02:15:11;;;;;;;40.50;20.83;;;4.50;99.90;;;;;;5102377;28;20284;-76
2023/03/06 02:17:38;;;;;;;33.70;16.03;;;4.60;99.90;;;;;;5092667;28;20207;-76
2023/03/06 02:20:13;;;;;;;41.77;19.30;;;4.60;99.90;;;;;;5110325;28;20231;-76
2023/03/06 02:22:47;;;;;;;43.03;19.07;;;4.60;99.90;;;;;;5072457;28;20671;-74
2023/03/06 02:25:33;;;;;;;39.90;19.10;;;4.70;99.90;;;;;;5095377;28;20208;-75
2023/03/06 02:28:01;;;;;;;40.97;19.57;;;4.60;99.90;;;;;;5075661;28;20239;-75
2023/03/06 02:30:29;;;;;;;40.20;16.67;;;4.80;99.90;;;;;;5093773;28;20591;-74
2023/03/06 02:32:57;;;;;;;44.50;20.23;;;4.60;99.90;;;;;;5079673;28;20211;-75
2023/03/06 02:35:26;;;;;;;48.93;19.90;;;4.60;99.90;;;;;;5108195;28;20210;-76
2023/03/06 02:37:53;;;;;;;31.87;14.83;;;4.60;99.90;;;;;;5084189;28;20226;-76
2023/03/06 02:40:22;;;;;;;35.67;17.07;;;4.50;99.90;;;;;;5073277;28;20751;-75
2023/03/06 02:42:51;;;;;;;38.50;16.93;;;4.90;99.90;;;;;;5078413;28;20212;-76
2023/03/06 02:45:24;;;;;;;37.07;14.57;;;4.60;99.90;;;;;;5077141;28;20593;-76
2023/03/06 02:47:51;;;;;;;34.53;14.17;;;4.50;99.90;;;;;;5079866;28;20699;-76
2023/03/06 02:50:18;;;;;;;37.60;17.10;;;4.40;99.90;;;;;;5096327;28;20226;-76
2023/03/06 02:52:45;;;;;;;34.23;15.37;;;4.40;99.90;;;;;;5098917;28;20208;-76
2023/03/06 02:55:12;;;;;;;31.03;14.23;;;4.70;99.90;;;;;;5091851;28;20301;-75
2023/03/06 02:57:40;;;;;;;37.10;16.63;;;4.40;99.90;;;;;;5091241;28;20207;-75
2023/03/06 03:00:09;;;;;;;25.80;12.27;;;4.50;99.90;;;;;;5077794;28;20235;-75
2023/03/06 03:02:36;;;;;;;27.83;11.57;;;4.40;99.90;;;;;;5082953;28;20235;-74
2023/03/06 03:05:03;;;;;;;36.03;15.87;;;4.40;99.90;;;;;;5107437;28;20878;-75
2023/03/06 03:07:31;;;;;;;35.77;15.70;;;4.40;99.90;;;;;;5080846;28;20232;-75
2023/03/06 03:09:58;;;;;;;34.77;14.63;;;4.60;99.90;;;;;;5089324;28;20312;-76
2023/03/06 03:12:27;;;;;;;25.30;9.60;;;4.50;99.90;;;;;;5092335;28;20212;-75
2023/03/06 03:14:56;;;;;;;32.00;13.53;;;4.50;99.90;;;;;;5110120;28;20253;-76
2023/03/06 03:17:24;;;;;;;30.03;13.57;;;4.40;99.90;;;;;;5092960;28;20698;-75
2023/03/06 03:19:51;;;;;;;31.10;13.53;;;4.40;99.90;;;;;;5081535;28;20611;-74
2023/03/06 03:22:19;;;;;;;32.57;13.87;;;4.40;99.90;;;;;;5078270;28;20584;-75
2023/03/06 03:24:46;;;;;;;30.10;12.00;;;4.50;99.90;;;;;;5105200;28;20200;-75
2023/03/06 03:27:13;;;;;;;36.10;15.83;;;4.40;99.90;;;;;;5085238;28;20216;-75
2023/03/06 03:29:41;;;;;;;38.67;15.97;;;4.40;99.90;;;;;;5077278;28;20742;-75
2023/03/06 03:32:09;;;;;;;34.80;15.37;;;4.30;99.90;;;;;;5072931;28;20218;-75
2023/03/06 03:34:37;;;;;;;35.97;14.33;;;4.30;99.90;;;;;;5089265;28;20225;-75
2023/03/06 03:37:04;;;;;;;41.23;16.63;;;4.30;99.90;;;;;;5081867;28;20616;-75
2023/03/06 03:39:31;;;;;;;38.13;15.40;;;2.20;99.90;;;;;;5098197;28;20205;-75
2023/03/06 03:41:58;;;;;;;39.27;16.60;;;4.20;99.90;;;;;;5071719;28;20224;-75
2023/03/06 03:44:25;;;;;;;39.30;16.83;;;4.10;99.90;;;;;;5079238;28;20733;-75
2023/03/06 03:46:52;;;;;;;41.70;18.90;;;4.10;99.90;;;;;;5072229;28;20215;-75
2023/03/06 03:49:24;;;;;;;29.17;11.57;;;4.10;99.90;;;;;;5100595;28;20536;-75
2023/03/06 03:51:51;;;;;;;40.20;15.90;;;4.10;99.90;;;;;;5086497;28;20629;-75
2023/03/06 03:54:19;;;;;;;36.50;15.03;;;4.10;99.90;;;;;;5083519;28;20306;-76
2023/03/06 03:56:48;;;;;;;31.67;13.97;;;4.20;99.90;;;;;;5077860;28;20303;-76
2023/03/06 03:59:23;;;;;;;38.70;15.07;;;4.30;99.90;;;;;;5089086;28;20213;-75
2023/03/06 04:02:24;;;;;;;33.30;12.97;;;4.10;99.90;;;;;;5087457;28;20217;-75
2023/03/06 04:05:01;;;;;;;36.53;14.57;;;4.40;99.90;;;;;;5083407;28;20223;-75
2023/03/06 04:07:28;;;;;;;35.40;14.87;;;4.20;99.90;;;;;;5086530;28;20314;-75
2023/03/06 04:09:56;;;;;;;32.83;14.33;;;4.20;99.90;;;;;;5091238;28;20614;-75
2023/03/06 04:12:23;;;;;;;27.53;11.23;;;4.20;99.90;;;;;;5079520;28;20454;-75
2023/03/06 04:14:51;;;;;;;37.17;15.13;;;4.20;99.90;;;;;;5084053;28;20231;-75
2023/03/06 04:17:18;;;;;;;34.20;15.53;;;4.20;99.90;;;;;;5079948;28;20667;-75
2023/03/06 04:19:44;;;;;;;34.87;14.70;;;4.30;99.90;;;;;;5091020;28;20233;-75
2023/03/06 04:22:13;;;;;;;40.17;17.03;;;4.20;99.90;;;;;;5091671;28;20211;-75
2023/03/06 04:24:40;;;;;;;26.53;9.70;;;4.40;99.90;;;;;;5088297;28;20273;-75
2023/03/06 04:27:07;;;;;;;37.00;15.17;;;4.40;99.90;;;;;;5084052;28;20214;-75
2023/03/06 04:29:34;;;;;;;40.50;16.17;;;4.40;99.90;;;;;;5077642;28;20237;-75
2023/03/06 04:32:01;;;;;;;38.47;15.47;;;4.30;99.90;;;;;;5108887;28;20625;-75
2023/03/06 04:34:28;;;;;;;33.67;12.97;;;4.30;99.90;;;;;;5090678;28;20300;-75
2023/03/06 04:36:55;;;;;;;27.70;10.87;;;4.30;99.90;;;;;;5079966;28;20220;-75
2023/03/06 04:52:25;;;;;;;50.07;17.13;;;4.40;99.90;;;;;;5120132;27;20604;-75
2023/03/06 04:54:52;;;;;;;52.43;17.57;;;4.30;99.90;;;;;;5116933;27;20704;-76
2023/03/06 04:57:19;;;;;;;39.70;12.87;;;4.10;99.90;;;;;;5123562;27;20209;-76
2023/03/06 04:59:46;;;;;;;40.17;14.77;;;4.30;99.90;;;;;;5106082;28;20219;-76
2023/03/06 05:02:13;;;;;;;43.53;16.70;;;4.00;99.90;;;;;;5108104;28;20658;-77
2023/03/06 05:04:40;;;;;;;40.07;15.93;;;4.10;99.90;;;;;;5106252;28;20213;-77
2023/03/06 05:07:06;;;;;;;41.53;16.57;;;3.90;99.90;;;;;;5106624;28;20235;-77
2023/03/06 05:09:35;;;;;;;39.67;13.73;;;3.90;99.90;;;;;;5116421;27;20216;-77
2023/03/06 05:12:03;;;;;;;38.70;14.60;;;3.90;99.90;;;;;;5109889;28;20212;-77
2023/03/06 05:14:31;;;;;;;31.73;13.97;;;3.80;99.90;;;;;;5102323;28;20212;-77
2023/03/06 05:16:58;;;;;;;39.63;15.00;;;3.70;99.90;;;;;;5104399;28;20219;-76
2023/03/06 05:19:25;;;;;;;38.13;15.13;;;4.40;99.90;;;;;;5114670;28;20211;-77
2023/03/06 05:21:52;;;;;;;37.30;15.30;;;3.60;99.90;;;;;;5086837;28;20220;-77
2023/03/06 05:24:19;;;;;;;42.97;16.13;;;3.60;99.90;;;;;;5113190;28;20668;-77
2023/03/06 05:26:47;;;;;;;34.03;13.80;;;3.50;99.90;;;;;;5116659;28;20207;-76
2023/03/06 05:29:14;;;;;;;34.13;13.40;;;3.50;99.90;;;;;;5116979;27;20210;-77
2023/03/06 05:31:40;;;;;;;32.43;12.80;;;3.50;99.90;;;;;;5620817;22;20222;-77
2023/03/06 05:34:09;;;;;;;36.67;13.53;;;3.50;99.90;;;;;;5101057;28;20263;-77
2023/03/06 05:36:36;;;;;;;34.87;14.97;;;3.50;99.90;;;;;;5104292;28;20209;-77
2023/03/06 05:39:03;;;;;;;38.40;13.77;;;3.60;99.90;;;;;;5118456;28;20204;-77
2023/03/06 05:41:29;;;;;;;44.03;16.70;;;3.50;99.90;;;;;;5102036;28;20250;-77
2023/03/06 05:43:58;;;;;;;37.07;15.87;;;3.60;99.90;;;;;;5100013;28;20214;-77
2023/03/06 05:46:25;;;;;;;38.17;17.20;;;3.50;99.90;;;;;;5104252;28;20210;-78
2023/03/06 05:48:56;;;;;;;44.80;17.87;;;2.30;99.90;;;;;;5102054;28;20390;-76
2023/03/06 05:51:23;;;;;;;36.57;14.17;;;3.40;99.90;;;;;;5098724;28;20267;-77
2023/03/06 05:53:50;;;;;;;41.63;16.43;;;3.50;99.90;;;;;;5087662;28;20233;-77
2023/03/06 05:56:17;;;;;;;40.43;13.87;;;3.50;99.90;;;;;;5089596;28;20211;-77
2023/03/06 05:58:45;;;;;;;40.80;16.63;;;3.50;99.90;;;;;;5088374;28;20216;-78
2023/03/06 06:01:15;;;;;;;43.70;16.63;;;3.50;99.90;;;;;;5088760;28;20233;-78
2023/03/06 06:03:42;;;;;;;41.43;16.50;;;3.40;99.90;;;;;;5090659;28;20208;-77
2023/03/06 06:06:11;;;;;;;43.80;17.20;;;3.30;99.90;;;;;;5088871;28;20619;-77
2023/03/06 06:08:39;;;;;;;47.73;18.90;;;3.40;99.90;;;;;;5090289;28;20224;-78
2023/03/06 06:11:06;;;;;;;46.13;19.90;;;3.40;99.90;;;;;;5092188;28;20230;-78
2023/03/06 06:13:33;;;;;;;45.33;16.67;;;3.50;99.90;;;;;;5089944;28;20320;-78
2023/03/06 06:16:05;;;;;;;41.23;16.63;;;3.50;99.90;;;;;;5088442;28;20216;-78
2023/03/06 06:18:33;;;;;;;51.70;17.80;;;3.50;99.90;;;;;;5085184;28;20277;-78
2023/03/06 06:21:04;;;;;;;37.07;13.87;;;3.60;99.90;;;;;;5088150;28;20294;-78
2023/03/06 06:23:31;;;;;;;36.60;14.83;;;3.60;99.90;;;;;;5088121;28;20621;-78
2023/03/06 06:25:59;;;;;;;44.07;15.50;;;3.80;99.90;;;;;;5087836;28;20288;-77
2023/03/06 06:28:27;;;;;;;39.40;15.63;;;3.70;99.90;;;;;;5085539;28;20628;-78
2023/03/06 06:30:54;;;;;;;43.70;17.23;;;3.80;99.90;;;;;;5088468;28;20250;-77
2023/03/06 06:33:21;;;;;;;38.07;15.97;;;3.80;99.90;;;;;;5088909;28;20206;-78
2023/03/06 06:35:50;;;;;;;37.23;14.27;;;3.90;99.90;;;;;;5089203;28;20259;-77
2023/03/06 06:38:17;;;;;;;37.07;15.47;;;3.90;99.90;;;;;;5086305;28;20303;-78
2023/03/06 06:40:44;;;;;;;40.17;14.47;;;4.10;99.90;;;;;;5078468;28;20232;-78
2023/03/06 06:43:11;;;;;;;42.03;17.53;;;4.00;99.90;;;;;;5087533;28;20213;-77
2023/03/06 06:45:38;;;;;;;53.50;21.37;;;4.00;99.90;;;;;;5083979;28;20219;-74
2023/03/06 06:48:05;;;;;;;50.73;21.00;;;4.10;99.90;;;;;;5081142;28;20300;-77
2023/03/06 06:50:32;;;;;;;50.53;20.23;;;4.10;99.90;;;;;;5088007;28;20261;-77
2023/03/06 06:53:01;;;;;;;52.00;21.13;;;4.00;99.90;;;;;;5078899;28;20204;-77
2023/03/06 06:55:28;;;;;;;45.03;19.63;;;4.20;99.90;;;;;;5105221;28;20711;-77
2023/03/06 06:57:55;;;;;;;51.33;21.30;;;4.20;99.90;;;;;;5093763;28;20560;-78
2023/03/06 07:00:23;;;;;;;43.30;17.93;;;4.40;99.90;;;;;;5087442;28;20236;-77
2023/03/06 07:02:50;;;;;;;44.63;19.33;;;4.30;99.90;;;;;;5083563;28;20210;-78
2023/03/06 07:05:18;;;;;;;36.47;14.97;;;4.30;99.90;;;;;;5093858;28;20290;-78
2023/03/06 07:07:45;;;;;;;48.60;20.03;;;4.40;99.90;;;;;;5092460;28;20329;-78
2023/03/06 07:10:15;;;;;;;42.97;17.97;;;4.40;99.90;;;;;;5087289;28;20220;-78
2023/03/06 07:12:42;;;;;;;42.83;17.80;;;4.50;99.90;;;;;;5091226;28;20199;-78
2023/03/06 07:15:11;;;;;;;42.50;17.07;;;4.90;99.90;;;;;;5094448;28;20671;-78
2023/03/06 07:17:38;;;;;;;39.80;16.03;;;4.60;99.90;;;;;;5082554;28;20209;-79
2023/03/06 07:20:07;;;;;;;43.70;16.07;;;4.60;99.90;;;;;;5095121;28;20272;-78
2023/03/06 07:22:34;;;;;;;47.47;19.30;;;4.40;99.90;;;;;;5087272;28;20220;-78
2023/03/06 07:25:02;;;;;;;45.67;17.67;;;4.60;99.90;;;;;;5093546;28;20685;-79
2023/03/06 07:27:30;;;;;;;45.53;18.17;;;5.40;99.90;;;;;;5087747;28;20221;-78
2023/03/06 07:29:57;;;;;;;41.70;18.20;;;5.00;99.90;;;;;;5095967;28;20233;-79
2023/03/06 07:32:24;;;;;;;41.70;18.47;;;4.90;99.90;;;;;;5089062;28;20214;-79
2023/03/06 07:34:51;;;;;;;43.03;16.70;;;5.00;99.90;;;;;;5089651;28;20240;-77
2023/03/06 07:37:18;;;;;;;31.20;10.90;;;5.00;99.90;;;;;;5083056;28;20224;-79
2023/03/06 07:39:44;;;;;;;40.23;15.93;;;5.00;99.90;;;;;;5092134;28;20222;-78
2023/03/06 07:42:13;;;;;;;36.10;15.73;;;5.10;99.90;;;;;;5089717;28;20948;-78
2023/03/06 07:44:48;;;;;;;37.93;14.67;;;5.00;99.90;;;;;;5091804;28;20214;-77
2023/03/06 07:47:15;;;;;;;32.03;11.70;;;5.30;99.90;;;;;;5089178;28;20206;-78
2023/03/06 07:49:42;;;;;;;33.93;13.20;;;4.90;99.90;;;;;;5081733;28;20279;-78
2023/03/06 07:52:09;;;;;;;37.40;14.00;;;5.10;99.90;;;;;;5087761;28;20201;-78
2023/03/06 07:54:36;;;;;;;36.03;14.60;;;5.10;99.90;;;;;;5094472;28;20203;-78
2023/03/06 07:57:03;;;;;;;36.03;15.07;;;4.70;99.90;;;;;;5103917;28;20209;-78
2023/03/06 07:59:30;;;;;;;32.63;12.97;;;5.50;99.90;;;;;;5088964;28;20222;-78
2023/03/06 08:01:58;;;;;;;36.60;14.67;;;5.40;99.90;;;;;;5076339;28;20694;-78
2023/03/06 08:04:25;;;;;;;33.17;12.80;;;5.50;99.90;;;;;;5089740;28;20406;-78
2023/03/06 08:06:52;;;;;;;37.57;16.57;;;5.70;99.90;;;;;;5087086;28;20286;-78
2023/03/06 08:09:19;;;;;;;42.50;16.87;;;5.70;99.90;;;;;;5080626;28;20738;-78
2023/03/06 08:11:46;;;;;;;34.83;14.00;;;5.80;99.90;;;;;;5084923;28;20230;-78
2023/03/06 08:14:13;;;;;;;39.40;14.50;;;5.70;99.90;;;;;;5081902;28;20207;-78
2023/03/06 08:16:40;;;;;;;31.10;13.50;;;5.80;99.90;;;;;;5090425;28;20195;-78
2023/03/06 08:19:08;;;;;;;38.87;17.30;;;5.80;99.90;;;;;;5092355;28;20629;-78
2023/03/06 08:21:35;;;;;;;31.43;13.90;;;6.30;99.90;;;;;;5083849;28;20704;-78
2023/03/06 08:24:02;;;;;;;38.50;17.47;;;5.90;99.90;;;;;;5083778;28;20212;-78
2023/03/06 08:26:31;;;;;;;37.90;16.07;;;5.90;99.90;;;;;;5079625;28;20200;-77
2023/03/06 08:29:00;;;;;;;39.90;17.60;;;6.00;99.90;;;;;;5095617;28;20213;-78
2023/03/06 08:31:29;;;;;;;37.73;17.43;;;6.00;99.90;;;;;;5087212;28;20458;-77
2023/03/06 08:33:59;;;;;;;46.50;18.20;;;6.00;99.90;;;;;;5085770;28;20213;-78
2023/03/06 08:36:27;;;;;;;38.37;16.50;;;6.00;99.90;;;;;;5089322;28;20267;-78
2023/03/06 08:38:54;;;;;;;44.20;19.40;;;6.00;99.90;;;;;;5087552;28;20220;-77
2023/03/06 08:41:21;;;;;;;46.43;16.97;;;6.00;99.90;;;;;;5079853;28;20233;-77
2023/03/06 08:43:49;;;;;;;47.43;20.53;;;6.00;99.90;;;;;;5088174;28;20219;-77
2023/03/06 08:46:17;;;;;;;45.30;20.97;;;5.90;99.90;;;;;;5085856;28;20199;-79
2023/03/06 08:48:46;;;;;;;47.77;20.57;;;5.70;99.90;;;;;;5088238;28;20205;-79
2023/03/06 08:51:14;;;;;;;50.77;22.10;;;5.80;99.90;;;;;;5088435;28;20713;-76
2023/03/06 08:53:42;;;;;;;46.33;17.73;;;5.70;99.90;;;;;;5082705;28;20235;-76
2023/03/06 08:56:15;;;;;;;40.87;17.57;;;5.50;99.90;;;;;;5086539;28;20208;-76
2023/03/06 08:58:42;;;;;;;39.73;18.40;;;5.40;99.90;;;;;;5086673;28;20296;-76
2023/03/06 09:01:13;;;;;;;43.70;19.27;;;5.30;99.90;;;;;;5084696;28;20232;-78
2023/03/06 09:03:40;;;;;;;52.60;21.30;;;5.20;99.90;;;;;;5085404;28;20236;-79
2023/03/06 09:06:07;;;;;;;41.37;18.67;;;5.20;99.90;;;;;;5086512;28;20213;-79
2023/03/06 09:08:34;;;;;;;37.37;15.60;;;5.30;99.90;;;;;;5086955;28;20304;-78
2023/03/06 09:11:02;;;;;;;52.00;23.40;;;5.20;99.90;;;;;;5082123;28;20234;-79
2023/03/06 09:13:29;;;;;;;46.13;20.50;;;5.20;99.90;;;;;;5081494;28;20225;-79
2023/03/06 09:15:57;;;;;;;45.50;19.73;;;5.60;99.90;;;;;;5086769;28;20217;-78
2023/03/06 09:18:24;;;;;;;42.20;16.80;;;5.50;99.90;;;;;;5078848;28;20204;-80
2023/03/06 09:20:51;;;;;;;32.60;12.67;;;5.60;99.90;;;;;;5087806;28;20236;-77
2023/03/06 09:23:18;;;;;;;34.70;15.10;;;5.80;99.90;;;;;;5086392;28;20234;-77
2023/03/06 09:25:44;;;;;;;41.83;18.90;;;5.90;99.90;;;;;;5086809;28;20223;-76
2023/03/06 09:28:13;;;;;;;47.57;20.97;;;6.10;99.90;;;;;;5085916;28;20246;-77
2023/03/06 09:30:40;;;;;;;39.93;18.93;;;6.10;99.90;;;;;;5090110;28;20234;-77
2023/03/06 09:33:07;;;;;;;38.70;17.47;;;6.60;99.90;;;;;;5089111;28;20703;-77
2023/03/06 09:35:34;;;;;;;48.13;20.23;;;6.50;99.90;;;;;;5087093;28;20690;-77
2023/03/06 09:38:01;;;;;;;53.83;24.33;;;6.70;99.90;;;;;;5089780;28;20294;-76
2023/03/06 09:40:38;;;;;;;51.27;23.80;;;7.20;99.90;;;;;;5093257;28;20223;-77
2023/03/06 09:43:05;;;;;;;48.73;20.73;;;7.30;99.90;;;;;;5090418;28;20219;-77
2023/03/06 09:45:37;;;;;;;51.10;21.83;;;7.00;99.90;;;;;;5096974;28;20346;-77
2023/03/06 09:48:10;;;;;;;48.80;21.90;;;7.00;99.90;;;;;;5091594;28;20208;-77
2023/03/06 09:50:45;;;;;;;55.53;24.40;;;7.10;99.90;;;;;;5087413;28;20251;-77
2023/03/06 09:53:35;;;;;;;48.60;22.43;;;7.10;99.90;;;;;;5102067;28;20209;-77
2023/03/06 09:56:06;;;;;;;54.83;21.03;;;7.10;99.90;;;;;;5091361;28;20203;-77
2023/03/06 09:58:41;;;;;;;48.77;21.93;;;7.10;99.90;;;;;;5098142;28;20247;-77
2023/03/06 10:01:16;;;;;;;44.80;21.23;;;7.10;99.90;;;;;;5077968;28;20227;-76
2023/03/06 10:03:49;;;;;;;40.23;19.03;;;7.30;99.90;;;;;;5083264;28;20199;-76
2023/03/06 10:06:22;;;;;;;43.10;19.33;;;7.30;99.90;;;;;;5089061;28;20225;-77
2023/03/06 10:08:54;;;;;;;47.90;19.27;;;7.30;99.90;;;;;;5088614;28;20907;-76
2023/03/06 10:11:26;;;;;;;42.63;20.17;;;7.30;99.90;;;;;;5088286;28;20296;-77
2023/03/06 10:14:07;;;;;;;35.30;13.47;;;7.20;99.90;;;;;;5102947;28;20233;-77
2023/03/06 10:16:35;;;;;;;45.97;18.50;;;7.30;99.90;;;;;;5082520;28;20268;-77
2023/03/06 10:19:07;;;;;;;41.77;16.10;;;7.20;99.90;;;;;;5095710;28;20203;-77
2023/03/06 10:21:45;;;;;;;41.83;16.77;;;7.20;99.90;;;;;;5093595;28;20708;-77
2023/03/06 10:24:35;;;;;;;36.13;14.73;;;7.10;99.90;;;;;;5093007;28;20965;-77
2023/03/06 10:27:14;;;;;;;40.67;15.97;;;7.00;99.90;;;;;;5094099;28;20691;-77
2023/03/06 10:29:51;;;;;;;41.50;14.97;;;7.40;99.90;;;;;;5087249;28;20811;-76
2023/03/06 10:32:27;;;;;;;35.07;15.13;;;7.40;99.90;;;;;;5083425;28;20299;-76
2023/03/06 10:34:57;;;;;;;38.03;14.83;;;7.80;99.90;;;;;;5092255;28;20785;-76
2023/03/06 10:37:24;;;;;;;34.57;14.43;;;8.00;99.90;;;;;;5095144;28;20614;-76
2023/03/06 10:39:55;;;;;;;31.20;13.03;;;8.10;99.90;;;;;;5089932;28;20224;-77
2023/03/06 10:42:23;;;;;;;32.67;14.33;;;8.30;99.90;;;;;;5087132;28;20228;-77
2023/03/06 10:45:08;;;;;;;26.67;9.90;;;8.30;99.90;;;;;;5090070;28;20230;-75
2023/03/06 10:47:37;;;;;;;36.17;13.07;;;8.40;99.90;;;;;;5088465;28;20261;-75
2023/03/06 10:50:12;;;;;;;31.63;11.37;;;8.40;99.90;;;;;;5086818;28;20311;-75
2023/03/06 10:52:39;;;;;;;32.73;11.47;;;8.40;99.90;;;;;;5083527;28;20199;-75
2023/03/06 10:55:25;;;;;;;32.03;11.27;;;8.30;99.90;;;;;;5071241;28;20208;-75
2023/03/06 10:57:52;;;;;;;31.37;11.70;;;8.10;99.90;;;;;;5086876;28;20227;-75
2023/03/06 11:00:31;;;;;;;22.87;8.40;;;7.60;99.90;;;;;;5091576;28;20676;-76
2023/03/06 11:03:18;;;;;;;32.50;12.10;;;7.60;99.90;;;;;;5084069;28;20251;-75
2023/03/06 11:06:11;;;;;;;33.57;11.93;;;7.60;99.90;;;;;;5081981;28;20713;-76
2023/03/06 11:08:39;;;;;;;31.60;11.43;;;7.40;99.90;;;;;;5065984;28;20329;-76
2023/03/06 11:11:11;;;;;;;34.10;13.80;;;7.70;99.90;;;;;;5088941;28;20246;-76
2023/03/06 11:13:40;;;;;;;31.00;13.20;;;7.90;99.90;;;;;;5093520;28;20861;-75
2023/03/06 11:16:18;;;;;;;28.90;12.77;;;8.10;99.90;;;;;;5091727;28;20212;-76
2023/03/06 11:18:56;;;;;;;33.00;13.13;;;8.30;99.90;;;;;;5083945;28;20792;-76
2023/03/06 11:21:29;;;;;;;34.60;12.00;;;8.70;99.90;;;;;;5099836;28;20299;-75
2023/03/06 11:24:01;;;;;;;33.50;13.07;;;7.30;99.90;;;;;;5089515;28;20219;-76
2023/03/06 11:26:37;;;;;;;30.27;11.60;;;8.70;99.90;;;;;;5086294;28;20285;-76
2023/03/06 11:29:12;;;;;;;26.87;11.47;;;8.80;99.90;;;;;;5083376;28;20646;-76
2023/03/06 11:31:54;;;;;;;27.07;9.93;;;9.10;99.90;;;;;;5082425;28;20232;-75
2023/03/06 11:34:35;;;;;;;20.30;8.17;;;9.10;99.90;;;;;;5088033;28;20791;-75
2023/03/06 11:37:08;;;;;;;22.97;10.27;;;9.10;99.90;;;;;;5084264;28;20211;-76
2023/03/06 11:39:41;;;;;;;25.57;10.10;;;9.60;99.90;;;;;;5087935;28;20215;-75
2023/03/06 11:42:17;;;;;;;25.60;10.00;;;9.70;99.90;;;;;;5086384;28;20785;-76
2023/03/06 11:44:53;;;;;;;27.37;11.23;;;10.20;99.90;;;;;;5093384;28;20207;-76
2023/03/06 11:47:25;;;;;;;24.97;10.73;;;10.80;99.90;;;;;;5082510;28;20315;-77
2023/03/06 11:50:02;;;;;;;23.83;10.40;;;11.10;99.90;;;;;;5085352;28;20290;-77
2023/03/06 11:52:41;;;;;;;26.87;11.27;;;11.40;99.90;;;;;;5077356;28;20196;-78
2023/03/06 11:55:15;;;;;;;31.53;12.37;;;11.50;99.90;;;;;;5083571;28;20210;-78
2023/03/06 11:57:49;;;;;;;27.10;11.90;;;11.30;99.90;;;;;;5085546;28;20585;-78
2023/03/06 12:00:27;;;;;;;29.10;13.03;;;11.20;99.90;;;;;;5081294;28;20284;-77
2023/03/06 12:03:09;;;;;;;29.40;12.77;;;10.90;99.90;;;;;;5088700;28;20757;-79
2023/03/06 12:05:45;;;;;;;29.43;12.50;;;10.70;99.90;;;;;;5083523;28;20749;-78
2023/03/06 12:08:28;;;;;;;23.40;8.87;;;10.40;99.90;;;;;;5093853;28;20286;-76
2023/03/06 12:11:01;;;;;;;30.73;12.30;;;10.10;99.90;;;;;;5075398;28;20706;-79
2023/03/06 12:13:49;;;;;;;25.83;10.83;;;10.20;99.90;;;;;;5086111;28;20196;-78
2023/03/06 12:16:31;;;;;;;25.00;8.97;;;9.60;99.90;;;;;;5075679;28;20291;-79
2023/03/06 12:19:11;;;;;;;24.37;9.20;;;10.00;99.90;;;;;;5076355;28;20272;-79
2023/03/06 12:21:51;;;;;;;22.60;8.90;;;10.20;99.90;;;;;;5076374;28;20736;-78
2023/03/06 12:24:32;;;;;;;20.30;7.27;;;10.60;99.90;;;;;;5084009;28;20283;-78
2023/03/06 12:27:12;;;;;;;23.70;7.97;;;10.90;99.90;;;;;;5086561;28;20212;-78
2023/03/06 12:29:56;;;;;;;21.13;7.70;;;11.00;99.90;;;;;;5077417;28;20230;-78
2023/03/06 12:32:35;;;;;;;19.40;7.43;;;11.10;99.90;;;;;;5079801;28;20209;-78
2023/03/06 12:35:24;;;;;;;22.00;7.50;;;11.30;99.90;;;;;;5079287;28;20204;-79
2023/03/06 12:38:01;;;;;;;20.07;7.80;;;11.60;99.90;;;;;;5086182;28;20528;-78
2023/03/06 12:40:45;;;;;;;22.67;6.93;;;11.70;99.90;;;;;;5087111;28;20225;-78
2023/03/06 12:43:38;;;;;;;19.13;6.33;;;12.10;99.90;;;;;;5082605;28;20222;-78
2023/03/06 12:46:12;;;;;;;18.67;6.43;;;12.10;99.90;;;;;;5079796;28;20205;-78
2023/03/06 12:48:41;;;;;;;17.60;6.13;;;12.30;99.90;;;;;;5087715;28;20201;-78
2023/03/06 12:51:15;;;;;;;19.77;6.03;;;12.10;99.90;;;;;;5082453;28;20693;-78
2023/03/06 12:53:45;;;;;;;19.23;7.57;;;11.90;99.90;;;;;;5084097;28;20199;-78
2023/03/06 12:56:14;;;;;;;20.07;6.97;;;11.40;99.90;;;;;;5103572;28;20201;-78
2023/03/06 12:58:50;;;;;;;18.03;7.07;;;11.20;99.90;;;;;;5078808;28;20214;-77
2023/03/06 13:01:30;;;;;;;19.37;6.80;;;10.90;99.90;;;;;;5084610;28;20231;-78
2023/03/06 13:04:16;;;;;;;21.60;6.93;;;10.80;99.90;;;;;;5080363;28;20689;-78
2023/03/06 13:07:02;;;;;;;21.60;6.30;;;10.50;99.90;;;;;;5089350;28;20258;-78